sensor_id;sensor_type;location;lat;lon;timestamp;temperature;humidity
44463;DHT22;30170;52.190;8.702;2022-10-31T00:03:40;13.10;99.90
44463;DHT22;30170;52.190;8.702;2022-10-31T00:06:07;12.30;99.90
44463;DHT22;30170;52.190;8.702;2022-10-31T00:08:34;11.30;99.90
44463;DHT22;30170;52.190;8.702;2022-10-31T00:11:01;12.30;99.90
44463;DHT22;30170;52.190;8.702;2022-10-31T00:13:28;12.30;99.90
44463;DHT22;30170;52.190;8.702;2022-10-31T00:15:54;12.80;99.90
44463;DHT22;30170;52.190;8.702;2022-10-31T00:18:21;12.30;99.90
44463;DHT22;30170;52.190;8.702;2022-10-31T00:25:42;12.30;99.90
44463;DHT22;30170;52.190;8.702;2022-10-31T00:28:10;12.20;99.90
44463;DHT22;30170;52.190;8.702;2022-10-31T00:30:38;12.20;99.90
44463;DHT22;30170;52.190;8.702;2022-10-31T00:33:05;12.20;99.90
44463;DHT22;30170;52.190;8.702;2022-10-31T00:35:32;12.10;99.90
44463;DHT22;30170;52.190;8.702;2022-10-31T00:37:59;12.10;99.90
44463;DHT22;30170;52.190;8.702;2022-10-31T00:40:25;12.50;99.90
44463;DHT22;30170;52.190;8.702;2022-10-31T00:42:52;12.10;99.90
44463;DHT22;30170;52.190;8.702;2022-10-31T00:45:19;12.10;99.90
44463;DHT22;30170;52.190;8.702;2022-10-31T00:47:46;12.10;99.90
44463;DHT22;30170;52.190;8.702;2022-10-31T00:50:13;12.10;99.90
44463;DHT22;30170;52.190;8.702;2022-10-31T00:55:07;12.60;99.90
44463;DHT22;30170;52.190;8.702;2022-10-31T00:57:33;12.00;99.90
44463;DHT22;30170;52.190;8.702;2022-10-31T01:00:00;12.00;99.90
44463;DHT22;30170;52.190;8.702;2022-10-31T01:02:27;12.00;99.90
44463;DHT22;30170;52.190;8.702;2022-10-31T01:04:54;12.00;99.90
44463;DHT22;30170;52.190;8.702;2022-10-31T01:07:21;9.60;99.90
44463;DHT22;30170;52.190;8.702;2022-10-31T01:09:47;12.00;99.90
44463;DHT22;30170;52.190;8.702;2022-10-31T01:12:14;12.00;99.90
44463;DHT22;30170;52.190;8.702;2022-10-31T01:14:44;11.90;99.90
44463;DHT22;30170;52.190;8.702;2022-10-31T01:17:12;12.20;99.90
44463;DHT22;30170;52.190;8.702;2022-10-31T01:19:39;11.80;99.90
44463;DHT22;30170;52.190;8.702;2022-10-31T01:22:06;11.70;99.90
44463;DHT22;30170;52.190;8.702;2022-10-31T01:24:33;11.60;99.90
44463;DHT22;30170;52.190;8.702;2022-10-31T01:26:59;11.50;99.90
44463;DHT22;30170;52.190;8.702;2022-10-31T01:29:26;11.60;99.90
44463;DHT22;30170;52.190;8.702;2022-10-31T01:31:53;11.60;99.90
44463;DHT22;30170;52.190;8.702;2022-10-31T01:36:47;12.20;99.90
44463;DHT22;30170;52.190;8.702;2022-10-31T01:39:18;11.40;99.90
44463;DHT22;30170;52.190;8.702;2022-10-31T01:41:50;11.50;99.90
44463;DHT22;30170;52.190;8.702;2022-10-31T01:46:56;11.40;99.90
44463;DHT22;30170;52.190;8.702;2022-10-31T01:52:07;11.40;99.90
44463;DHT22;30170;52.190;8.702;2022-10-31T01:54:41;11.50;99.90
44463;DHT22;30170;52.190;8.702;2022-10-31T01:57:13;11.60;99.90
44463;DHT22;30170;52.190;8.702;2022-10-31T01:59:47;11.60;99.90
44463;DHT22;30170;52.190;8.702;2022-10-31T02:02:17;11.70;99.90
44463;DHT22;30170;52.190;8.702;2022-10-31T02:04:46;11.50;99.90
44463;DHT22;30170;52.190;8.702;2022-10-31T02:07:18;11.60;99.90
44463;DHT22;30170;52.190;8.702;2022-10-31T02:09:47;11.40;99.90
44463;DHT22;30170;52.190;8.702;2022-10-31T02:12:16;11.30;99.90
44463;DHT22;30170;52.190;8.702;2022-10-31T02:14:44;11.10;99.90
44463;DHT22;30170;52.190;8.702;2022-10-31T02:17:11;10.90;99.90
44463;DHT22;30170;52.190;8.702;2022-10-31T02:19:52;10.70;99.90
44463;DHT22;30170;52.190;8.702;2022-10-31T02:22:24;10.60;99.90
44463;DHT22;30170;52.190;8.702;2022-10-31T02:28:10;10.60;99.90
44463;DHT22;30170;52.190;8.702;2022-10-31T02:33:52;10.70;99.90
44463;DHT22;30170;52.190;8.702;2022-10-31T02:36:29;10.50;99.90
44463;DHT22;30170;52.190;8.702;2022-10-31T02:42:01;10.40;99.90
44463;DHT22;30170;52.190;8.702;2022-10-31T02:47:38;10.30;99.90
44463;DHT22;30170;52.190;8.702;2022-10-31T02:50:28;10.30;99.90
44463;DHT22;30170;52.190;8.702;2022-10-31T02:52:57;10.40;99.90
44463;DHT22;30170;52.190;8.702;2022-10-31T03:00:37;10.10;99.90
44463;DHT22;30170;52.190;8.702;2022-10-31T03:03:17;10.20;99.90
44463;DHT22;30170;52.190;8.702;2022-10-31T03:11:09;10.00;99.90
44463;DHT22;30170;52.190;8.702;2022-10-31T03:19:01;10.30;99.90
44463;DHT22;30170;52.190;8.702;2022-10-31T03:24:23;10.40;99.90
44463;DHT22;30170;52.190;8.702;2022-10-31T03:26:54;10.40;99.90
44463;DHT22;30170;52.190;8.702;2022-10-31T03:29:24;10.40;99.90
44463;DHT22;30170;52.190;8.702;2022-10-31T03:31:57;10.30;99.90
44463;DHT22;30170;52.190;8.702;2022-10-31T03:34:26;10.30;99.90
44463;DHT22;30170;52.190;8.702;2022-10-31T03:36:56;10.20;99.90
44463;DHT22;30170;52.190;8.702;2022-10-31T03:39:24;10.50;99.90
44463;DHT22;30170;52.190;8.702;2022-10-31T03:42:00;10.20;99.90
44463;DHT22;30170;52.190;8.702;2022-10-31T03:44:29;10.10;99.90
44463;DHT22;30170;52.190;8.702;2022-10-31T03:46:57;10.20;99.90
44463;DHT22;30170;52.190;8.702;2022-10-31T03:49:25;10.80;99.90
44463;DHT22;30170;52.190;8.702;2022-10-31T03:54:43;9.80;99.90
44463;DHT22;30170;52.190;8.702;2022-10-31T03:57:22;9.70;99.90
44463;DHT22;30170;52.190;8.702;2022-10-31T03:59:55;9.60;99.90
44463;DHT22;30170;52.190;8.702;2022-10-31T04:02:25;9.60;99.90
44463;DHT22;30170;52.190;8.702;2022-10-31T04:04:56;9.80;99.90
44463;DHT22;30170;52.190;8.702;2022-10-31T04:07:27;9.40;99.90
44463;DHT22;30170;52.190;8.702;2022-10-31T04:09:55;9.50;99.90
44463;DHT22;30170;52.190;8.702;2022-10-31T04:12:24;9.40;99.90
44463;DHT22;30170;52.190;8.702;2022-10-31T04:14:52;9.30;99.90
44463;DHT22;30170;52.190;8.702;2022-10-31T04:17:22;9.20;99.90
44463;DHT22;30170;52.190;8.702;2022-10-31T04:19:50;12.30;99.90
44463;DHT22;30170;52.190;8.702;2022-10-31T04:22:16;9.10;99.90
44463;DHT22;30170;52.190;8.702;2022-10-31T04:24:43;8.90;99.90
44463;DHT22;30170;52.190;8.702;2022-10-31T04:27:11;9.00;99.90
44463;DHT22;30170;52.190;8.702;2022-10-31T04:29:37;9.00;99.90
44463;DHT22;30170;52.190;8.702;2022-10-31T04:32:04;8.80;99.90
44463;DHT22;30170;52.190;8.702;2022-10-31T04:34:31;8.80;99.90
44463;DHT22;30170;52.190;8.702;2022-10-31T04:36:58;8.70;99.90
44463;DHT22;30170;52.190;8.702;2022-10-31T04:39:24;8.60;99.90
44463;DHT22;30170;52.190;8.702;2022-10-31T04:41:52;8.60;99.90
44463;DHT22;30170;52.190;8.702;2022-10-31T04:44:19;9.10;99.90
44463;DHT22;30170;52.190;8.702;2022-10-31T04:46:46;8.60;99.90
44463;DHT22;30170;52.190;8.702;2022-10-31T04:49:13;8.50;99.90
44463;DHT22;30170;52.190;8.702;2022-10-31T04:54:07;8.60;99.90
44463;DHT22;30170;52.190;8.702;2022-10-31T04:56:33;8.50;99.90
44463;DHT22;30170;52.190;8.702;2022-10-31T05:03:55;8.60;99.90
44463;DHT22;30170;52.190;8.702;2022-10-31T05:06:21;8.60;99.90
44463;DHT22;30170;52.190;8.702;2022-10-31T05:08:48;8.50;99.90
44463;DHT22;30170;52.190;8.702;2022-10-31T05:11:15;8.50;99.90
44463;DHT22;30170;52.190;8.702;2022-10-31T05:13:42;8.50;99.90
44463;DHT22;30170;52.190;8.702;2022-10-31T05:16:09;8.50;99.90
44463;DHT22;30170;52.190;8.702;2022-10-31T05:18:35;8.50;99.90
44463;DHT22;30170;52.190;8.702;2022-10-31T05:21:02;8.50;99.90
44463;DHT22;30170;52.190;8.702;2022-10-31T05:23:29;8.50;99.90
44463;DHT22;30170;52.190;8.702;2022-10-31T05:25:56;8.50;99.90
44463;DHT22;30170;52.190;8.702;2022-10-31T05:28:23;8.20;99.90
44463;DHT22;30170;52.190;8.702;2022-10-31T05:30:49;8.40;99.90
44463;DHT22;30170;52.190;8.702;2022-10-31T05:33:16;8.30;99.90
44463;DHT22;30170;52.190;8.702;2022-10-31T05:38:10;7.80;99.90
44463;DHT22;30170;52.190;8.702;2022-10-31T05:43:04;8.70;99.90
44463;DHT22;30170;52.190;8.702;2022-10-31T05:47:59;8.30;99.90
44463;DHT22;30170;52.190;8.702;2022-10-31T05:50:29;8.30;99.90
44463;DHT22;30170;52.190;8.702;2022-10-31T05:57:52;8.30;99.90
44463;DHT22;30170;52.190;8.702;2022-10-31T06:00:19;8.40;99.90
44463;DHT22;30170;52.190;8.702;2022-10-31T06:02:46;8.30;99.90
44463;DHT22;30170;52.190;8.702;2022-10-31T06:07:40;8.10;99.90
44463;DHT22;30170;52.190;8.702;2022-10-31T06:10:08;8.20;99.90
44463;DHT22;30170;52.190;8.702;2022-10-31T06:12:36;8.20;99.90
44463;DHT22;30170;52.190;8.702;2022-10-31T06:15:08;8.00;99.90
44463;DHT22;30170;52.190;8.702;2022-10-31T06:17:35;8.20;99.90
44463;DHT22;30170;52.190;8.702;2022-10-31T06:20:03;8.10;99.90
44463;DHT22;30170;52.190;8.702;2022-10-31T06:22:31;8.30;99.90
44463;DHT22;30170;52.190;8.702;2022-10-31T06:24:58;8.60;99.90
44463;DHT22;30170;52.190;8.702;2022-10-31T06:27:25;8.30;99.90
44463;DHT22;30170;52.190;8.702;2022-10-31T06:29:52;8.20;99.90
44463;DHT22;30170;52.190;8.702;2022-10-31T06:32:18;8.30;99.90
44463;DHT22;30170;52.190;8.702;2022-10-31T06:34:45;9.80;99.90
44463;DHT22;30170;52.190;8.702;2022-10-31T06:37:15;8.20;99.90
44463;DHT22;30170;52.190;8.702;2022-10-31T06:39:42;8.50;99.90
44463;DHT22;30170;52.190;8.702;2022-10-31T06:42:09;8.10;99.90
44463;DHT22;30170;52.190;8.702;2022-10-31T06:44:36;8.30;99.90
44463;DHT22;30170;52.190;8.702;2022-10-31T06:47:02;8.20;99.90
44463;DHT22;30170;52.190;8.702;2022-10-31T06:49:29;8.20;99.90
44463;DHT22;30170;52.190;8.702;2022-10-31T06:51:56;8.20;99.90
44463;DHT22;30170;52.190;8.702;2022-10-31T06:54:23;8.30;99.90
44463;DHT22;30170;52.190;8.702;2022-10-31T06:56:54;8.40;99.90
44463;DHT22;30170;52.190;8.702;2022-10-31T06:59:21;8.50;99.90
44463;DHT22;30170;52.190;8.702;2022-10-31T07:01:48;8.50;99.90
44463;DHT22;30170;52.190;8.702;2022-10-31T07:04:15;8.80;99.90
44463;DHT22;30170;52.190;8.702;2022-10-31T07:06:41;8.70;99.90
44463;DHT22;30170;52.190;8.702;2022-10-31T07:09:11;8.60;99.90
44463;DHT22;30170;52.190;8.702;2022-10-31T07:11:38;8.80;99.90
44463;DHT22;30170;52.190;8.702;2022-10-31T07:14:05;9.00;99.90
44463;DHT22;30170;52.190;8.702;2022-10-31T07:16:31;9.30;99.90
44463;DHT22;30170;52.190;8.702;2022-10-31T07:18:58;9.00;99.90
44463;DHT22;30170;52.190;8.702;2022-10-31T07:21:25;9.00;99.90
44463;DHT22;30170;52.190;8.702;2022-10-31T07:23:52;9.00;99.90
44463;DHT22;30170;52.190;8.702;2022-10-31T07:26:18;9.10;99.90
44463;DHT22;30170;52.190;8.702;2022-10-31T07:28:46;9.10;99.90
44463;DHT22;30170;52.190;8.702;2022-10-31T07:31:13;9.20;99.90
44463;DHT22;30170;52.190;8.702;2022-10-31T07:33:40;9.80;99.90
44463;DHT22;30170;52.190;8.702;2022-10-31T07:36:07;9.40;99.90
44463;DHT22;30170;52.190;8.702;2022-10-31T07:45:55;9.90;99.90
44463;DHT22;30170;52.190;8.702;2022-10-31T07:50:49;10.30;99.90
44463;DHT22;30170;52.190;8.702;2022-10-31T07:58:13;11.00;99.90
44463;DHT22;30170;52.190;8.702;2022-10-31T08:00:41;10.90;99.90
44463;DHT22;30170;52.190;8.702;2022-10-31T08:03:14;11.10;99.90
44463;DHT22;30170;52.190;8.702;2022-10-31T08:05:42;11.20;99.90
44463;DHT22;30170;52.190;8.702;2022-10-31T08:13:11;11.20;99.90
44463;DHT22;30170;52.190;8.702;2022-10-31T08:15:38;11.20;99.90
44463;DHT22;30170;52.190;8.702;2022-10-31T08:18:14;11.10;99.90
44463;DHT22;30170;52.190;8.702;2022-10-31T08:20:42;11.30;99.90
44463;DHT22;30170;52.190;8.702;2022-10-31T08:23:10;11.60;99.90
44463;DHT22;30170;52.190;8.702;2022-10-31T08:28:08;12.00;99.90
44463;DHT22;30170;52.190;8.702;2022-10-31T08:30:36;12.10;99.90
44463;DHT22;30170;52.190;8.702;2022-10-31T08:35:32;12.00;99.90
44463;DHT22;30170;52.190;8.702;2022-10-31T08:38:00;12.00;99.90
44463;DHT22;30170;52.190;8.702;2022-10-31T08:40:29;12.10;99.90
44463;DHT22;30170;52.190;8.702;2022-10-31T08:43:22;12.20;99.90
44463;DHT22;30170;52.190;8.702;2022-10-31T08:45:48;12.20;99.90
44463;DHT22;30170;52.190;8.702;2022-10-31T08:48:16;12.10;99.90
44463;DHT22;30170;52.190;8.702;2022-10-31T08:50:44;12.30;99.90
44463;DHT22;30170;52.190;8.702;2022-10-31T08:53:14;12.80;99.90
44463;DHT22;30170;52.190;8.702;2022-10-31T08:55:42;12.30;99.90
44463;DHT22;30170;52.190;8.702;2022-10-31T08:58:11;12.70;99.90
44463;DHT22;30170;52.190;8.702;2022-10-31T09:00:39;12.60;99.90
44463;DHT22;30170;52.190;8.702;2022-10-31T09:03:10;12.80;99.90
44463;DHT22;30170;52.190;8.702;2022-10-31T09:05:37;12.90;99.90
44463;DHT22;30170;52.190;8.702;2022-10-31T09:08:05;13.00;99.90
44463;DHT22;30170;52.190;8.702;2022-10-31T09:10:37;13.10;99.90
44463;DHT22;30170;52.190;8.702;2022-10-31T09:13:07;13.20;99.90
44463;DHT22;30170;52.190;8.702;2022-10-31T09:15:36;13.40;99.90
44463;DHT22;30170;52.190;8.702;2022-10-31T09:18:06;13.70;99.90
44463;DHT22;30170;52.190;8.702;2022-10-31T09:20:34;13.90;99.90
44463;DHT22;30170;52.190;8.702;2022-10-31T09:23:06;14.00;99.90
44463;DHT22;30170;52.190;8.702;2022-10-31T09:25:41;14.40;99.90
44463;DHT22;30170;52.190;8.702;2022-10-31T09:28:17;14.70;99.90
44463;DHT22;30170;52.190;8.702;2022-10-31T09:30:47;15.00;99.90
44463;DHT22;30170;52.190;8.702;2022-10-31T09:33:14;15.50;99.90
44463;DHT22;30170;52.190;8.702;2022-10-31T09:35:41;15.20;99.90
44463;DHT22;30170;52.190;8.702;2022-10-31T09:38:10;15.20;99.90
44463;DHT22;30170;52.190;8.702;2022-10-31T09:40:44;15.20;99.90
44463;DHT22;30170;52.190;8.702;2022-10-31T09:45:52;15.40;99.90
44463;DHT22;30170;52.190;8.702;2022-10-31T09:50:59;15.80;99.90
44463;DHT22;30170;52.190;8.702;2022-10-31T09:53:46;15.70;99.90
44463;DHT22;30170;52.190;8.702;2022-10-31T09:56:19;16.10;99.90
44463;DHT22;30170;52.190;8.702;2022-10-31T09:58:50;16.20;99.90
44463;DHT22;30170;52.190;8.702;2022-10-31T10:03:57;16.80;99.90
44463;DHT22;30170;52.190;8.702;2022-10-31T10:06:27;17.00;99.90
44463;DHT22;30170;52.190;8.702;2022-10-31T10:08:56;17.60;99.90
44463;DHT22;30170;52.190;8.702;2022-10-31T10:11:38;18.00;99.90
44463;DHT22;30170;52.190;8.702;2022-10-31T10:17:29;18.40;99.90
44463;DHT22;30170;52.190;8.702;2022-10-31T10:20:18;18.40;99.90
44463;DHT22;30170;52.190;8.702;2022-10-31T10:25:39;19.00;99.90
44463;DHT22;30170;52.190;8.702;2022-10-31T10:31:12;19.60;99.90
44463;DHT22;30170;52.190;8.702;2022-10-31T10:33:53;19.70;99.90
44463;DHT22;30170;52.190;8.702;2022-10-31T10:36:37;19.60;99.90
44463;DHT22;30170;52.190;8.702;2022-10-31T10:39:14;19.70;99.90
44463;DHT22;30170;52.190;8.702;2022-10-31T10:41:46;19.80;99.90
44463;DHT22;30170;52.190;8.702;2022-10-31T10:44:13;20.00;99.90
44463;DHT22;30170;52.190;8.702;2022-10-31T10:47:02;19.90;99.90
44463;DHT22;30170;52.190;8.702;2022-10-31T10:49:51;19.50;99.90
44463;DHT22;30170;52.190;8.702;2022-10-31T10:52:46;19.80;99.90
44463;DHT22;30170;52.190;8.702;2022-10-31T10:58:01;20.10;99.90
44463;DHT22;30170;52.190;8.702;2022-10-31T11:03:03;20.70;99.90
44463;DHT22;30170;52.190;8.702;2022-10-31T11:08:07;22.00;99.90
44463;DHT22;30170;52.190;8.702;2022-10-31T11:44:27;27.80;70.50
44463;DHT22;30170;52.190;8.702;2022-10-31T11:47:01;28.50;64.50
44463;DHT22;30170;52.190;8.702;2022-10-31T11:49:35;28.40;63.40
44463;DHT22;30170;52.190;8.702;2022-10-31T11:52:27;27.70;62.10
44463;DHT22;30170;52.190;8.702;2022-10-31T11:54:58;26.80;64.30
44463;DHT22;30170;52.190;8.702;2022-10-31T11:57:31;26.50;65.50
44463;DHT22;30170;52.190;8.702;2022-10-31T12:00:01;26.70;66.90
44463;DHT22;30170;52.190;8.702;2022-10-31T12:03:27;26.80;65.40
44463;DHT22;30170;52.190;8.702;2022-10-31T12:06:18;26.30;66.60
44463;DHT22;30170;52.190;8.702;2022-10-31T12:08:46;25.00;67.20
44463;DHT22;30170;52.190;8.702;2022-10-31T12:11:35;24.30;72.00
44463;DHT22;30170;52.190;8.702;2022-10-31T12:14:27;23.50;73.50
44463;DHT22;30170;52.190;8.702;2022-10-31T12:17:19;22.60;77.40
44463;DHT22;30170;52.190;8.702;2022-10-31T12:25:55;21.60;92.00
44463;DHT22;30170;52.190;8.702;2022-10-31T12:36:46;21.50;91.70
44463;DHT22;30170;52.190;8.702;2022-10-31T12:55:46;24.70;76.40
44463;DHT22;30170;52.190;8.702;2022-10-31T13:04:02;25.30;72.20
44463;DHT22;30170;52.190;8.702;2022-10-31T13:06:35;24.70;71.90
44463;DHT22;30170;52.190;8.702;2022-10-31T13:09:13;24.30;74.00
44463;DHT22;30170;52.190;8.702;2022-10-31T13:11:53;24.30;76.00
44463;DHT22;30170;52.190;8.702;2022-10-31T13:14:32;24.30;75.30
44463;DHT22;30170;52.190;8.702;2022-10-31T13:17:00;24.20;74.10
44463;DHT22;30170;52.190;8.702;2022-10-31T13:19:30;24.00;74.90
44463;DHT22;30170;52.190;8.702;2022-10-31T13:24:42;22.80;79.40
44463;DHT22;30170;52.190;8.702;2022-10-31T13:27:30;22.20;79.80
44463;DHT22;30170;52.190;8.702;2022-10-31T13:30:01;21.60;84.90
44463;DHT22;30170;52.190;8.702;2022-10-31T13:38:02;20.70;93.00
44463;DHT22;30170;52.190;8.702;2022-10-31T13:41:04;20.50;95.10
44463;DHT22;30170;52.190;8.702;2022-10-31T13:44:02;20.30;95.50
44463;DHT22;30170;52.190;8.702;2022-10-31T13:46:38;20.10;97.50
44463;DHT22;30170;52.190;8.702;2022-10-31T13:51:51;20.20;98.80
44463;DHT22;30170;52.190;8.702;2022-10-31T13:56:52;20.80;97.20
44463;DHT22;30170;52.190;8.702;2022-10-31T13:59:28;21.20;96.20
44463;DHT22;30170;52.190;8.702;2022-10-31T14:02:00;21.70;93.40
44463;DHT22;30170;52.190;8.702;2022-10-31T14:15:03;21.70;89.40
44463;DHT22;30170;52.190;8.702;2022-10-31T14:17:45;21.60;91.20
44463;DHT22;30170;52.190;8.702;2022-10-31T14:22:42;21.10;92.80
44463;DHT22;30170;52.190;8.702;2022-10-31T14:25:33;20.60;93.60
44463;DHT22;30170;52.190;8.702;2022-10-31T14:28:22;20.30;94.80
44463;DHT22;30170;52.190;8.702;2022-10-31T14:30:58;19.90;97.80
44463;DHT22;30170;52.190;8.702;2022-10-31T14:33:27;19.70;98.60
44463;DHT22;30170;52.190;8.702;2022-10-31T14:36:06;19.40;99.90
44463;DHT22;30170;52.190;8.702;2022-10-31T14:38:57;19.10;99.90
44463;DHT22;30170;52.190;8.702;2022-10-31T14:44:20;18.60;99.90
44463;DHT22;30170;52.190;8.702;2022-10-31T14:47:20;18.30;99.90
44463;DHT22;30170;52.190;8.702;2022-10-31T14:52:56;17.90;99.90
44463;DHT22;30170;52.190;8.702;2022-10-31T14:55:24;17.80;99.90
44463;DHT22;30170;52.190;8.702;2022-10-31T14:58:03;17.60;99.90
44463;DHT22;30170;52.190;8.702;2022-10-31T15:00:32;17.40;99.90
44463;DHT22;30170;52.190;8.702;2022-10-31T15:06:00;17.00;99.90
44463;DHT22;30170;52.190;8.702;2022-10-31T15:08:37;17.00;99.90
44463;DHT22;30170;52.190;8.702;2022-10-31T15:11:16;16.90;99.90
44463;DHT22;30170;52.190;8.702;2022-10-31T15:13:54;16.70;99.90
44463;DHT22;30170;52.190;8.702;2022-10-31T15:16:24;16.70;99.90
44463;DHT22;30170;52.190;8.702;2022-10-31T15:19:03;16.60;99.90
44463;DHT22;30170;52.190;8.702;2022-10-31T15:21:30;16.50;99.90
44463;DHT22;30170;52.190;8.702;2022-10-31T15:23:59;16.40;99.90
44463;DHT22;30170;52.190;8.702;2022-10-31T15:26:34;16.30;99.90
44463;DHT22;30170;52.190;8.702;2022-10-31T15:29:04;16.20;99.90
44463;DHT22;30170;52.190;8.702;2022-10-31T15:31:32;16.10;99.90
44463;DHT22;30170;52.190;8.702;2022-10-31T15:34:03;16.00;99.90
44463;DHT22;30170;52.190;8.702;2022-10-31T15:36:31;16.30;99.90
44463;DHT22;30170;52.190;8.702;2022-10-31T15:39:04;16.30;99.90
44463;DHT22;30170;52.190;8.702;2022-10-31T15:44:29;16.00;99.90
44463;DHT22;30170;52.190;8.702;2022-10-31T15:49:39;15.90;99.90
44463;DHT22;30170;52.190;8.702;2022-10-31T15:55:02;15.70;99.90
44463;DHT22;30170;52.190;8.702;2022-10-31T15:57:30;15.60;99.90
44463;DHT22;30170;52.190;8.702;2022-10-31T15:59:57;15.50;99.90
44463;DHT22;30170;52.190;8.702;2022-10-31T16:02:26;15.60;99.90
44463;DHT22;30170;52.190;8.702;2022-10-31T16:05:19;15.50;99.90
44463;DHT22;30170;52.190;8.702;2022-10-31T16:07:51;15.50;99.90
44463;DHT22;30170;52.190;8.702;2022-10-31T16:10:26;15.50;99.90
44463;DHT22;30170;52.190;8.702;2022-10-31T16:12:53;15.40;99.90
44463;DHT22;30170;52.190;8.702;2022-10-31T16:15:21;15.40;99.90
44463;DHT22;30170;52.190;8.702;2022-10-31T16:17:50;15.50;99.90
44463;DHT22;30170;52.190;8.702;2022-10-31T16:20:28;15.40;99.90
44463;DHT22;30170;52.190;8.702;2022-10-31T16:23:00;15.40;99.90
44463;DHT22;30170;52.190;8.702;2022-10-31T16:25:36;15.40;99.90
44463;DHT22;30170;52.190;8.702;2022-10-31T16:28:13;15.30;99.90
44463;DHT22;30170;52.190;8.702;2022-10-31T16:30:43;15.30;99.90
44463;DHT22;30170;52.190;8.702;2022-10-31T16:33:36;15.20;99.90
44463;DHT22;30170;52.190;8.702;2022-10-31T16:36:29;15.10;99.90
44463;DHT22;30170;52.190;8.702;2022-10-31T16:39:04;15.20;99.90
44463;DHT22;30170;52.190;8.702;2022-10-31T16:41:34;14.90;99.90
44463;DHT22;30170;52.190;8.702;2022-10-31T16:44:04;14.90;99.90
44463;DHT22;30170;52.190;8.702;2022-10-31T16:46:33;14.80;99.90
44463;DHT22;30170;52.190;8.702;2022-10-31T16:48:59;14.70;99.90
44463;DHT22;30170;52.190;8.702;2022-10-31T16:51:27;15.70;99.90
44463;DHT22;30170;52.190;8.702;2022-10-31T16:53:54;14.70;99.90
44463;DHT22;30170;52.190;8.702;2022-10-31T16:56:32;14.70;99.90
44463;DHT22;30170;52.190;8.702;2022-10-31T16:59:04;14.60;99.90
44463;DHT22;30170;52.190;8.702;2022-10-31T17:01:51;14.50;99.90
44463;DHT22;30170;52.190;8.702;2022-10-31T17:04:19;14.50;99.90
44463;DHT22;30170;52.190;8.702;2022-10-31T17:06:48;14.50;99.90
44463;DHT22;30170;52.190;8.702;2022-10-31T17:09:15;14.40;99.90
44463;DHT22;30170;52.190;8.702;2022-10-31T17:11:50;14.40;99.90
44463;DHT22;30170;52.190;8.702;2022-10-31T17:14:18;14.40;99.90
44463;DHT22;30170;52.190;8.702;2022-10-31T17:16:46;14.30;99.90
44463;DHT22;30170;52.190;8.702;2022-10-31T17:19:13;14.50;99.90
44463;DHT22;30170;52.190;8.702;2022-10-31T17:21:44;14.30;99.90
44463;DHT22;30170;52.190;8.702;2022-10-31T17:24:13;14.20;99.90
44463;DHT22;30170;52.190;8.702;2022-10-31T17:26:48;14.50;99.90
44463;DHT22;30170;52.190;8.702;2022-10-31T17:29:17;14.10;99.90
44463;DHT22;30170;52.190;8.702;2022-10-31T17:31:44;14.10;99.90
44463;DHT22;30170;52.190;8.702;2022-10-31T17:34:13;14.00;99.90
44463;DHT22;30170;52.190;8.702;2022-10-31T17:36:40;14.00;99.90
44463;DHT22;30170;52.190;8.702;2022-10-31T17:39:10;14.00;99.90
44463;DHT22;30170;52.190;8.702;2022-10-31T17:41:36;14.20;99.90
44463;DHT22;30170;52.190;8.702;2022-10-31T17:44:17;13.80;99.90
44463;DHT22;30170;52.190;8.702;2022-10-31T17:46:45;13.70;99.90
44463;DHT22;30170;52.190;8.702;2022-10-31T17:49:13;13.80;99.90
44463;DHT22;30170;52.190;8.702;2022-10-31T17:54:17;14.40;99.90
44463;DHT22;30170;52.190;8.702;2022-10-31T17:56:48;13.60;99.90
44463;DHT22;30170;52.190;8.702;2022-10-31T17:59:15;13.60;99.90
44463;DHT22;30170;52.190;8.702;2022-10-31T18:01:42;13.60;99.90
44463;DHT22;30170;52.190;8.702;2022-10-31T18:04:27;13.50;99.90
44463;DHT22;30170;52.190;8.702;2022-10-31T18:06:54;13.50;99.90
44463;DHT22;30170;52.190;8.702;2022-10-31T18:09:22;13.40;99.90
44463;DHT22;30170;52.190;8.702;2022-10-31T18:11:49;13.20;99.90
44463;DHT22;30170;52.190;8.702;2022-10-31T18:14:17;13.10;99.90
44463;DHT22;30170;52.190;8.702;2022-10-31T18:16:44;13.10;99.90
44463;DHT22;30170;52.190;8.702;2022-10-31T18:19:13;12.90;99.90
44463;DHT22;30170;52.190;8.702;2022-10-31T18:21:43;13.00;99.90
44463;DHT22;30170;52.190;8.702;2022-10-31T18:24:15;12.90;99.90
44463;DHT22;30170;52.190;8.702;2022-10-31T18:26:42;13.10;99.90
44463;DHT22;30170;52.190;8.702;2022-10-31T18:29:11;12.90;99.90
44463;DHT22;30170;52.190;8.702;2022-10-31T18:31:38;12.80;99.90
44463;DHT22;30170;52.190;8.702;2022-10-31T18:34:05;13.40;99.90
44463;DHT22;30170;52.190;8.702;2022-10-31T18:36:32;13.00;99.90
44463;DHT22;30170;52.190;8.702;2022-10-31T18:38:59;12.50;99.90
44463;DHT22;30170;52.190;8.702;2022-10-31T18:41:26;12.00;99.90
44463;DHT22;30170;52.190;8.702;2022-10-31T18:44:13;12.20;99.90
44463;DHT22;30170;52.190;8.702;2022-10-31T18:46:39;12.00;99.90
44463;DHT22;30170;52.190;8.702;2022-10-31T18:49:06;12.10;99.90
44463;DHT22;30170;52.190;8.702;2022-10-31T18:51:36;11.90;99.90
44463;DHT22;30170;52.190;8.702;2022-10-31T18:54:03;11.90;99.90
44463;DHT22;30170;52.190;8.702;2022-10-31T18:56:30;11.90;99.90
44463;DHT22;30170;52.190;8.702;2022-10-31T18:59:00;11.80;99.90
44463;DHT22;30170;52.190;8.702;2022-10-31T19:01:30;11.90;99.90
44463;DHT22;30170;52.190;8.702;2022-10-31T19:03:57;12.00;99.90
44463;DHT22;30170;52.190;8.702;2022-10-31T19:06:41;11.80;99.90
44463;DHT22;30170;52.190;8.702;2022-10-31T19:09:07;11.80;99.90
44463;DHT22;30170;52.190;8.702;2022-10-31T19:11:36;11.70;99.90
44463;DHT22;30170;52.190;8.702;2022-10-31T19:14:04;11.70;99.90
44463;DHT22;30170;52.190;8.702;2022-10-31T19:16:34;11.60;99.90
44463;DHT22;30170;52.190;8.702;2022-10-31T19:19:00;11.80;99.90
44463;DHT22;30170;52.190;8.702;2022-10-31T19:21:27;11.50;99.90
44463;DHT22;30170;52.190;8.702;2022-10-31T19:23:57;11.40;99.90
44463;DHT22;30170;52.190;8.702;2022-10-31T19:26:25;11.60;99.90
44463;DHT22;30170;52.190;8.702;2022-10-31T19:28:54;11.70;99.90
44463;DHT22;30170;52.190;8.702;2022-10-31T19:31:21;12.00;99.90
44463;DHT22;30170;52.190;8.702;2022-10-31T19:33:48;12.00;99.90
44463;DHT22;30170;52.190;8.702;2022-10-31T19:36:16;12.10;99.90
44463;DHT22;30170;52.190;8.702;2022-10-31T19:38:46;12.30;99.90
44463;DHT22;30170;52.190;8.702;2022-10-31T19:41:16;11.70;99.90
44463;DHT22;30170;52.190;8.702;2022-10-31T19:43:43;11.80;99.90
44463;DHT22;30170;52.190;8.702;2022-10-31T19:46:12;11.90;99.90
44463;DHT22;30170;52.190;8.702;2022-10-31T19:48:53;11.80;99.90
44463;DHT22;30170;52.190;8.702;2022-10-31T19:51:21;11.90;99.90
44463;DHT22;30170;52.190;8.702;2022-10-31T19:53:48;11.90;99.90
44463;DHT22;30170;52.190;8.702;2022-10-31T19:56:22;11.90;99.90
44463;DHT22;30170;52.190;8.702;2022-10-31T19:58:50;12.00;99.90